sensor_id;sensor_type;location;lat;lon;timestamp;temperature;humidity
20654;DHT22;21083;50.898;4.902;2022-07-10T00:02:18;17.30;99.90
20654;DHT22;21083;50.898;4.902;2022-07-10T00:04:45;17.20;99.90
20654;DHT22;21083;50.898;4.902;2022-07-10T00:07:13;17.20;99.90
20654;DHT22;21083;50.898;4.902;2022-07-10T00:09:40;17.20;99.90
20654;DHT22;21083;50.898;4.902;2022-07-10T00:12:07;17.10;99.90
20654;DHT22;21083;50.898;4.902;2022-07-10T00:14:34;17.10;99.90
20654;DHT22;21083;50.898;4.902;2022-07-10T00:17:01;17.10;99.90
20654;DHT22;21083;50.898;4.902;2022-07-10T00:19:28;17.10;99.90
20654;DHT22;21083;50.898;4.902;2022-07-10T00:21:55;17.00;99.90
20654;DHT22;21083;50.898;4.902;2022-07-10T00:24:23;17.00;99.90
20654;DHT22;21083;50.898;4.902;2022-07-10T00:26:50;17.00;99.90
20654;DHT22;21083;50.898;4.902;2022-07-10T00:29:17;16.90;99.90
20654;DHT22;21083;50.898;4.902;2022-07-10T00:31:44;16.90;99.90
20654;DHT22;21083;50.898;4.902;2022-07-10T00:34:11;16.80;99.90
20654;DHT22;21083;50.898;4.902;2022-07-10T00:36:38;16.80;99.90
20654;DHT22;21083;50.898;4.902;2022-07-10T00:39:05;16.80;99.90
20654;DHT22;21083;50.898;4.902;2022-07-10T00:41:34;16.70;99.90
20654;DHT22;21083;50.898;4.902;2022-07-10T00:44:02;16.70;99.90
20654;DHT22;21083;50.898;4.902;2022-07-10T00:46:30;16.60;99.90
20654;DHT22;21083;50.898;4.902;2022-07-10T00:48:57;16.50;99.90
20654;DHT22;21083;50.898;4.902;2022-07-10T00:51:26;16.50;99.90
20654;DHT22;21083;50.898;4.902;2022-07-10T00:53:54;16.50;99.90
20654;DHT22;21083;50.898;4.902;2022-07-10T00:56:24;16.40;99.90
20654;DHT22;21083;50.898;4.902;2022-07-10T00:58:54;16.40;99.90
20654;DHT22;21083;50.898;4.902;2022-07-10T01:01:21;16.30;99.90
20654;DHT22;21083;50.898;4.902;2022-07-10T01:03:49;16.30;99.90
20654;DHT22;21083;50.898;4.902;2022-07-10T01:06:17;16.30;99.90
20654;DHT22;21083;50.898;4.902;2022-07-10T01:08:44;16.30;99.90
20654;DHT22;21083;50.898;4.902;2022-07-10T01:11:13;16.20;99.90
20654;DHT22;21083;50.898;4.902;2022-07-10T01:13:41;16.20;99.90
20654;DHT22;21083;50.898;4.902;2022-07-10T01:16:10;16.20;99.90
20654;DHT22;21083;50.898;4.902;2022-07-10T01:18:37;16.20;99.90
20654;DHT22;21083;50.898;4.902;2022-07-10T01:21:05;16.20;99.90
20654;DHT22;21083;50.898;4.902;2022-07-10T01:23:32;16.20;99.90
20654;DHT22;21083;50.898;4.902;2022-07-10T01:25:59;16.20;99.90
20654;DHT22;21083;50.898;4.902;2022-07-10T01:28:29;16.10;99.90
20654;DHT22;21083;50.898;4.902;2022-07-10T01:30:56;16.10;99.90
20654;DHT22;21083;50.898;4.902;2022-07-10T01:33:24;16.00;99.90
20654;DHT22;21083;50.898;4.902;2022-07-10T01:35:51;16.00;99.90
20654;DHT22;21083;50.898;4.902;2022-07-10T01:38:19;16.00;99.90
20654;DHT22;21083;50.898;4.902;2022-07-10T01:40:46;16.00;99.90
20654;DHT22;21083;50.898;4.902;2022-07-10T01:43:13;15.90;99.90
20654;DHT22;21083;50.898;4.902;2022-07-10T01:45:40;15.80;99.90
20654;DHT22;21083;50.898;4.902;2022-07-10T01:48:09;15.80;99.90
20654;DHT22;21083;50.898;4.902;2022-07-10T01:50:36;15.60;99.90
20654;DHT22;21083;50.898;4.902;2022-07-10T01:53:04;15.50;99.90
20654;DHT22;21083;50.898;4.902;2022-07-10T01:55:33;15.50;99.90
20654;DHT22;21083;50.898;4.902;2022-07-10T01:58:00;15.40;99.90
20654;DHT22;21083;50.898;4.902;2022-07-10T02:00:26;15.40;99.90
20654;DHT22;21083;50.898;4.902;2022-07-10T02:02:53;15.40;99.90
20654;DHT22;21083;50.898;4.902;2022-07-10T02:05:37;15.40;99.90
20654;DHT22;21083;50.898;4.902;2022-07-10T02:08:05;15.40;99.90
20654;DHT22;21083;50.898;4.902;2022-07-10T02:10:33;15.20;99.90
20654;DHT22;21083;50.898;4.902;2022-07-10T02:13:00;15.10;99.90
20654;DHT22;21083;50.898;4.902;2022-07-10T02:15:27;15.20;99.90
20654;DHT22;21083;50.898;4.902;2022-07-10T02:17:54;15.20;99.90
20654;DHT22;21083;50.898;4.902;2022-07-10T02:20:21;15.20;99.90
20654;DHT22;21083;50.898;4.902;2022-07-10T02:22:48;15.20;99.90
20654;DHT22;21083;50.898;4.902;2022-07-10T02:25:15;15.00;99.90
20654;DHT22;21083;50.898;4.902;2022-07-10T02:27:43;15.00;99.90
20654;DHT22;21083;50.898;4.902;2022-07-10T02:30:10;15.00;99.90
20654;DHT22;21083;50.898;4.902;2022-07-10T02:32:37;15.10;99.90
20654;DHT22;21083;50.898;4.902;2022-07-10T02:35:05;15.10;99.90
20654;DHT22;21083;50.898;4.902;2022-07-10T02:37:32;15.20;99.90
20654;DHT22;21083;50.898;4.902;2022-07-10T02:39:59;15.20;99.90
20654;DHT22;21083;50.898;4.902;2022-07-10T02:42:26;15.10;99.90
20654;DHT22;21083;50.898;4.902;2022-07-10T02:44:54;15.10;99.90
20654;DHT22;21083;50.898;4.902;2022-07-10T02:47:21;15.00;99.90
20654;DHT22;21083;50.898;4.902;2022-07-10T02:49:47;14.90;99.90
20654;DHT22;21083;50.898;4.902;2022-07-10T02:52:14;15.00;99.90
20654;DHT22;21083;50.898;4.902;2022-07-10T02:54:41;15.00;99.90
20654;DHT22;21083;50.898;4.902;2022-07-10T02:57:08;15.00;99.90
20654;DHT22;21083;50.898;4.902;2022-07-10T02:59:35;15.00;99.90
20654;DHT22;21083;50.898;4.902;2022-07-10T03:02:04;14.90;99.90
20654;DHT22;21083;50.898;4.902;2022-07-10T03:04:31;15.00;99.90
20654;DHT22;21083;50.898;4.902;2022-07-10T03:06:58;14.80;99.90
20654;DHT22;21083;50.898;4.902;2022-07-10T03:09:25;14.70;99.90
20654;DHT22;21083;50.898;4.902;2022-07-10T03:11:52;14.90;99.90
20654;DHT22;21083;50.898;4.902;2022-07-10T03:14:20;14.90;99.90
20654;DHT22;21083;50.898;4.902;2022-07-10T03:16:47;14.90;99.90
20654;DHT22;21083;50.898;4.902;2022-07-10T03:19:15;14.90;99.90
20654;DHT22;21083;50.898;4.902;2022-07-10T03:21:42;14.60;99.90
20654;DHT22;21083;50.898;4.902;2022-07-10T03:24:10;14.50;99.90
20654;DHT22;21083;50.898;4.902;2022-07-10T03:26:36;14.50;99.90
20654;DHT22;21083;50.898;4.902;2022-07-10T03:29:03;14.40;99.90
20654;DHT22;21083;50.898;4.902;2022-07-10T03:31:30;14.30;99.90
20654;DHT22;21083;50.898;4.902;2022-07-10T03:33:57;14.40;99.90
20654;DHT22;21083;50.898;4.902;2022-07-10T03:36:25;14.40;99.90
20654;DHT22;21083;50.898;4.902;2022-07-10T03:38:53;14.40;99.90
20654;DHT22;21083;50.898;4.902;2022-07-10T03:41:20;14.50;99.90
20654;DHT22;21083;50.898;4.902;2022-07-10T03:43:47;14.50;99.90
20654;DHT22;21083;50.898;4.902;2022-07-10T03:46:13;14.40;99.90
20654;DHT22;21083;50.898;4.902;2022-07-10T03:48:40;14.40;99.90
20654;DHT22;21083;50.898;4.902;2022-07-10T03:51:07;14.40;99.90
20654;DHT22;21083;50.898;4.902;2022-07-10T03:53:35;14.40;99.90
20654;DHT22;21083;50.898;4.902;2022-07-10T03:56:03;14.40;99.90
20654;DHT22;21083;50.898;4.902;2022-07-10T03:58:30;14.50;99.90
20654;DHT22;21083;50.898;4.902;2022-07-10T04:00:56;14.40;99.90
20654;DHT22;21083;50.898;4.902;2022-07-10T04:03:23;14.40;99.90
20654;DHT22;21083;50.898;4.902;2022-07-10T04:05:50;14.50;99.90
20654;DHT22;21083;50.898;4.902;2022-07-10T04:08:17;14.50;99.90
20654;DHT22;21083;50.898;4.902;2022-07-10T04:10:46;14.60;99.90
20654;DHT22;21083;50.898;4.902;2022-07-10T04:13:14;14.60;99.90
20654;DHT22;21083;50.898;4.902;2022-07-10T04:15:41;14.60;99.90
20654;DHT22;21083;50.898;4.902;2022-07-10T04:18:08;14.70;99.90
20654;DHT22;21083;50.898;4.902;2022-07-10T04:20:35;14.70;99.90
20654;DHT22;21083;50.898;4.902;2022-07-10T04:23:02;14.70;99.90
20654;DHT22;21083;50.898;4.902;2022-07-10T04:25:29;14.70;99.90
20654;DHT22;21083;50.898;4.902;2022-07-10T04:27:57;14.60;99.90
20654;DHT22;21083;50.898;4.902;2022-07-10T04:30:24;14.60;99.90
20654;DHT22;21083;50.898;4.902;2022-07-10T04:32:51;14.60;99.90
20654;DHT22;21083;50.898;4.902;2022-07-10T04:35:18;14.60;99.90
20654;DHT22;21083;50.898;4.902;2022-07-10T04:37:45;14.60;99.90
20654;DHT22;21083;50.898;4.902;2022-07-10T04:40:12;14.50;99.90
20654;DHT22;21083;50.898;4.902;2022-07-10T04:42:39;14.40;99.90
20654;DHT22;21083;50.898;4.902;2022-07-10T04:45:08;14.40;99.90
20654;DHT22;21083;50.898;4.902;2022-07-10T04:47:35;14.20;99.90
20654;DHT22;21083;50.898;4.902;2022-07-10T04:50:02;14.00;99.90
20654;DHT22;21083;50.898;4.902;2022-07-10T04:52:29;14.20;99.90
20654;DHT22;21083;50.898;4.902;2022-07-10T04:54:56;14.30;99.90
20654;DHT22;21083;50.898;4.902;2022-07-10T04:57:23;14.30;99.90
20654;DHT22;21083;50.898;4.902;2022-07-10T04:59:50;14.40;99.90
20654;DHT22;21083;50.898;4.902;2022-07-10T05:02:18;14.50;99.90
20654;DHT22;21083;50.898;4.902;2022-07-10T05:04:45;14.60;99.90
20654;DHT22;21083;50.898;4.902;2022-07-10T05:07:14;14.60;99.90
20654;DHT22;21083;50.898;4.902;2022-07-10T05:09:42;14.80;99.90
20654;DHT22;21083;50.898;4.902;2022-07-10T05:12:09;14.80;99.90
20654;DHT22;21083;50.898;4.902;2022-07-10T05:14:35;14.90;99.90
20654;DHT22;21083;50.898;4.902;2022-07-10T05:17:03;15.00;99.90
20654;DHT22;21083;50.898;4.902;2022-07-10T05:19:31;15.00;99.90
20654;DHT22;21083;50.898;4.902;2022-07-10T05:21:58;14.90;99.90
20654;DHT22;21083;50.898;4.902;2022-07-10T05:24:25;15.00;99.90
20654;DHT22;21083;50.898;4.902;2022-07-10T05:26:52;15.10;99.90
20654;DHT22;21083;50.898;4.902;2022-07-10T05:29:19;15.20;99.90
20654;DHT22;21083;50.898;4.902;2022-07-10T05:31:46;15.20;99.90
20654;DHT22;21083;50.898;4.902;2022-07-10T05:34:13;15.20;99.90
20654;DHT22;21083;50.898;4.902;2022-07-10T05:36:41;15.30;99.90
20654;DHT22;21083;50.898;4.902;2022-07-10T05:39:08;15.30;99.90
20654;DHT22;21083;50.898;4.902;2022-07-10T05:41:35;15.30;99.90
20654;DHT22;21083;50.898;4.902;2022-07-10T05:44:02;15.40;99.90
20654;DHT22;21083;50.898;4.902;2022-07-10T05:46:29;15.50;99.90
20654;DHT22;21083;50.898;4.902;2022-07-10T05:48:56;15.60;99.90
20654;DHT22;21083;50.898;4.902;2022-07-10T05:51:23;15.60;99.90
20654;DHT22;21083;50.898;4.902;2022-07-10T05:53:51;15.70;99.90
20654;DHT22;21083;50.898;4.902;2022-07-10T05:56:18;15.70;99.90
20654;DHT22;21083;50.898;4.902;2022-07-10T05:58:45;15.70;99.90
20654;DHT22;21083;50.898;4.902;2022-07-10T06:01:12;15.70;99.90
20654;DHT22;21083;50.898;4.902;2022-07-10T06:03:39;15.80;99.90
20654;DHT22;21083;50.898;4.902;2022-07-10T06:06:06;16.00;99.90
20654;DHT22;21083;50.898;4.902;2022-07-10T06:08:33;16.10;99.90
20654;DHT22;21083;50.898;4.902;2022-07-10T06:11:01;16.10;99.90
20654;DHT22;21083;50.898;4.902;2022-07-10T06:13:28;16.20;99.90
20654;DHT22;21083;50.898;4.902;2022-07-10T06:15:57;16.30;99.90
20654;DHT22;21083;50.898;4.902;2022-07-10T06:18:25;16.30;99.90
20654;DHT22;21083;50.898;4.902;2022-07-10T06:20:52;16.30;99.90
20654;DHT22;21083;50.898;4.902;2022-07-10T06:23:18;16.30;99.90
20654;DHT22;21083;50.898;4.902;2022-07-10T06:25:45;16.40;99.90
20654;DHT22;21083;50.898;4.902;2022-07-10T06:28:15;16.50;99.90
20654;DHT22;21083;50.898;4.902;2022-07-10T06:30:42;16.60;99.90
20654;DHT22;21083;50.898;4.902;2022-07-10T06:33:09;16.70;99.90
20654;DHT22;21083;50.898;4.902;2022-07-10T06:35:36;16.70;99.90
20654;DHT22;21083;50.898;4.902;2022-07-10T06:38:03;16.80;99.90
20654;DHT22;21083;50.898;4.902;2022-07-10T06:40:34;17.00;99.90
20654;DHT22;21083;50.898;4.902;2022-07-10T06:43:02;17.30;99.90
20654;DHT22;21083;50.898;4.902;2022-07-10T06:45:30;17.40;99.90
20654;DHT22;21083;50.898;4.902;2022-07-10T06:47:57;17.50;99.90
20654;DHT22;21083;50.898;4.902;2022-07-10T06:50:26;17.60;99.90
20654;DHT22;21083;50.898;4.902;2022-07-10T06:52:56;17.70;99.90
20654;DHT22;21083;50.898;4.902;2022-07-10T06:55:23;17.90;99.90
20654;DHT22;21083;50.898;4.902;2022-07-10T06:57:51;18.10;99.90
20654;DHT22;21083;50.898;4.902;2022-07-10T07:00:19;18.10;99.90
20654;DHT22;21083;50.898;4.902;2022-07-10T07:02:47;18.20;99.90
20654;DHT22;21083;50.898;4.902;2022-07-10T07:05:14;18.20;99.90
20654;DHT22;21083;50.898;4.902;2022-07-10T07:07:41;18.10;99.90
20654;DHT22;21083;50.898;4.902;2022-07-10T07:10:10;18.20;99.90
20654;DHT22;21083;50.898;4.902;2022-07-10T07:12:38;18.20;99.90
20654;DHT22;21083;50.898;4.902;2022-07-10T07:15:06;18.30;99.90
20654;DHT22;21083;50.898;4.902;2022-07-10T07:17:39;18.40;99.90
20654;DHT22;21083;50.898;4.902;2022-07-10T07:20:24;18.60;99.90
20654;DHT22;21083;50.898;4.902;2022-07-10T07:23:08;18.70;99.90
20654;DHT22;21083;50.898;4.902;2022-07-10T07:25:40;18.80;99.90
20654;DHT22;21083;50.898;4.902;2022-07-10T07:28:09;18.90;99.90
20654;DHT22;21083;50.898;4.902;2022-07-10T07:30:37;19.10;99.90
20654;DHT22;21083;50.898;4.902;2022-07-10T07:33:05;19.10;99.90
20654;DHT22;21083;50.898;4.902;2022-07-10T07:35:33;19.40;99.90
20654;DHT22;21083;50.898;4.902;2022-07-10T07:38:03;19.40;99.90
20654;DHT22;21083;50.898;4.902;2022-07-10T07:40:32;19.20;99.90
20654;DHT22;21083;50.898;4.902;2022-07-10T07:43:02;19.30;99.90
20654;DHT22;21083;50.898;4.902;2022-07-10T07:45:30;19.30;99.90
20654;DHT22;21083;50.898;4.902;2022-07-10T07:47:58;19.20;99.90
20654;DHT22;21083;50.898;4.902;2022-07-10T07:50:29;19.10;99.90
20654;DHT22;21083;50.898;4.902;2022-07-10T07:52:59;18.90;99.90
20654;DHT22;21083;50.898;4.902;2022-07-10T07:55:27;19.10;99.90
20654;DHT22;21083;50.898;4.902;2022-07-10T07:57:55;19.30;99.90
20654;DHT22;21083;50.898;4.902;2022-07-10T08:00:23;19.40;99.90
20654;DHT22;21083;50.898;4.902;2022-07-10T08:02:52;19.70;99.90
20654;DHT22;21083;50.898;4.902;2022-07-10T08:05:19;19.60;99.90
20654;DHT22;21083;50.898;4.902;2022-07-10T08:07:49;19.30;99.90
20654;DHT22;21083;50.898;4.902;2022-07-10T08:10:19;19.30;99.90
20654;DHT22;21083;50.898;4.902;2022-07-10T08:12:46;19.40;99.90
20654;DHT22;21083;50.898;4.902;2022-07-10T08:15:15;19.50;99.90
20654;DHT22;21083;50.898;4.902;2022-07-10T08:17:42;19.70;99.90
20654;DHT22;21083;50.898;4.902;2022-07-10T08:20:11;19.90;99.90
20654;DHT22;21083;50.898;4.902;2022-07-10T08:22:39;20.00;99.90
20654;DHT22;21083;50.898;4.902;2022-07-10T08:25:07;19.80;99.90
20654;DHT22;21083;50.898;4.902;2022-07-10T08:27:35;19.80;99.90
20654;DHT22;21083;50.898;4.902;2022-07-10T08:30:02;19.90;99.90
20654;DHT22;21083;50.898;4.902;2022-07-10T08:32:29;20.10;99.90
20654;DHT22;21083;50.898;4.902;2022-07-10T08:34:57;20.10;99.90
20654;DHT22;21083;50.898;4.902;2022-07-10T08:37:24;20.00;99.90
20654;DHT22;21083;50.898;4.902;2022-07-10T08:39:51;19.90;99.90
20654;DHT22;21083;50.898;4.902;2022-07-10T08:42:19;20.10;99.90
20654;DHT22;21083;50.898;4.902;2022-07-10T08:44:48;20.50;99.90
20654;DHT22;21083;50.898;4.902;2022-07-10T08:47:18;20.90;99.90
20654;DHT22;21083;50.898;4.902;2022-07-10T08:49:47;21.10;99.90
20654;DHT22;21083;50.898;4.902;2022-07-10T08:52:25;20.90;99.90
20654;DHT22;21083;50.898;4.902;2022-07-10T08:54:53;20.90;99.90
20654;DHT22;21083;50.898;4.902;2022-07-10T08:57:23;21.20;99.90
20654;DHT22;21083;50.898;4.902;2022-07-10T08:59:51;21.60;99.90
20654;DHT22;21083;50.898;4.902;2022-07-10T09:02:19;21.80;99.90
20654;DHT22;21083;50.898;4.902;2022-07-10T09:04:46;21.30;99.90
20654;DHT22;21083;50.898;4.902;2022-07-10T09:07:14;21.40;99.90
20654;DHT22;21083;50.898;4.902;2022-07-10T09:09:54;21.90;99.90
20654;DHT22;21083;50.898;4.902;2022-07-10T09:12:22;22.10;99.90
20654;DHT22;21083;50.898;4.902;2022-07-10T09:14:51;22.20;99.90
20654;DHT22;21083;50.898;4.902;2022-07-10T09:17:20;22.10;99.90
20654;DHT22;21083;50.898;4.902;2022-07-10T09:19:49;22.20;99.90
20654;DHT22;21083;50.898;4.902;2022-07-10T09:22:16;22.30;99.90
20654;DHT22;21083;50.898;4.902;2022-07-10T09:24:45;22.50;99.90
20654;DHT22;21083;50.898;4.902;2022-07-10T09:27:14;22.50;99.90
20654;DHT22;21083;50.898;4.902;2022-07-10T09:29:46;22.50;99.90
20654;DHT22;21083;50.898;4.902;2022-07-10T09:32:15;22.40;99.90
20654;DHT22;21083;50.898;4.902;2022-07-10T09:34:43;22.40;99.90
20654;DHT22;21083;50.898;4.902;2022-07-10T09:37:18;22.50;99.90
20654;DHT22;21083;50.898;4.902;2022-07-10T09:39:53;22.60;99.90
20654;DHT22;21083;50.898;4.902;2022-07-10T09:42:31;22.60;99.90
20654;DHT22;21083;50.898;4.902;2022-07-10T09:45:17;22.20;99.90
20654;DHT22;21083;50.898;4.902;2022-07-10T09:47:55;22.00;99.90
20654;DHT22;21083;50.898;4.902;2022-07-10T09:50:25;21.70;99.90
20654;DHT22;21083;50.898;4.902;2022-07-10T09:52:54;21.80;99.90
20654;DHT22;21083;50.898;4.902;2022-07-10T09:55:24;22.00;99.90
20654;DHT22;21083;50.898;4.902;2022-07-10T09:57:56;22.30;99.90
20654;DHT22;21083;50.898;4.902;2022-07-10T10:00:24;22.30;99.90
20654;DHT22;21083;50.898;4.902;2022-07-10T10:02:57;22.50;99.90
20654;DHT22;21083;50.898;4.902;2022-07-10T10:05:37;22.50;99.90
20654;DHT22;21083;50.898;4.902;2022-07-10T10:08:11;22.80;99.90
20654;DHT22;21083;50.898;4.902;2022-07-10T10:10:43;22.90;99.90
20654;DHT22;21083;50.898;4.902;2022-07-10T10:13:11;23.00;99.90
20654;DHT22;21083;50.898;4.902;2022-07-10T10:15:38;22.60;99.90
20654;DHT22;21083;50.898;4.902;2022-07-10T10:18:07;22.60;99.90
20654;DHT22;21083;50.898;4.902;2022-07-10T10:20:36;22.70;99.90
20654;DHT22;21083;50.898;4.902;2022-07-10T10:23:10;22.90;99.90
20654;DHT22;21083;50.898;4.902;2022-07-10T10:25:37;23.10;99.90
20654;DHT22;21083;50.898;4.902;2022-07-10T10:28:05;23.30;99.90
20654;DHT22;21083;50.898;4.902;2022-07-10T10:30:33;23.50;99.90
20654;DHT22;21083;50.898;4.902;2022-07-10T10:33:02;23.60;99.90
20654;DHT22;21083;50.898;4.902;2022-07-10T10:35:43;23.50;99.90
20654;DHT22;21083;50.898;4.902;2022-07-10T10:38:12;23.50;99.90
20654;DHT22;21083;50.898;4.902;2022-07-10T10:40:39;23.30;99.90
20654;DHT22;21083;50.898;4.902;2022-07-10T10:43:17;23.20;99.90
20654;DHT22;21083;50.898;4.902;2022-07-10T10:45:45;23.10;99.90
20654;DHT22;21083;50.898;4.902;2022-07-10T10:48:13;23.00;99.90
20654;DHT22;21083;50.898;4.902;2022-07-10T10:50:45;23.00;99.90
20654;DHT22;21083;50.898;4.902;2022-07-10T10:53:14;23.10;99.90
20654;DHT22;21083;50.898;4.902;2022-07-10T10:58:24;23.00;99.90
20654;DHT22;21083;50.898;4.902;2022-07-10T11:00:52;22.90;99.90
20654;DHT22;21083;50.898;4.902;2022-07-10T11:03:21;22.90;99.90
20654;DHT22;21083;50.898;4.902;2022-07-10T11:05:51;22.90;99.90
20654;DHT22;21083;50.898;4.902;2022-07-10T11:08:38;22.70;99.90
20654;DHT22;21083;50.898;4.902;2022-07-10T11:11:39;22.10;99.90
20654;DHT22;21083;50.898;4.902;2022-07-10T11:14:09;22.00;99.90
20654;DHT22;21083;50.898;4.902;2022-07-10T11:16:45;22.50;99.90
20654;DHT22;21083;50.898;4.902;2022-07-10T11:19:18;22.90;99.90
20654;DHT22;21083;50.898;4.902;2022-07-10T11:21:47;23.40;99.90
20654;DHT22;21083;50.898;4.902;2022-07-10T11:24:38;23.60;99.90
20654;DHT22;21083;50.898;4.902;2022-07-10T11:27:24;23.90;99.90
20654;DHT22;21083;50.898;4.902;2022-07-10T11:29:59;24.10;99.90
20654;DHT22;21083;50.898;4.902;2022-07-10T11:32:27;24.20;99.90
20654;DHT22;21083;50.898;4.902;2022-07-10T11:34:54;24.30;99.90
20654;DHT22;21083;50.898;4.902;2022-07-10T11:37:23;24.30;99.90
20654;DHT22;21083;50.898;4.902;2022-07-10T11:40:08;24.50;99.90
20654;DHT22;21083;50.898;4.902;2022-07-10T11:42:48;24.70;99.90
20654;DHT22;21083;50.898;4.902;2022-07-10T11:45:29;25.00;99.90
20654;DHT22;21083;50.898;4.902;2022-07-10T11:47:57;25.20;99.90
20654;DHT22;21083;50.898;4.902;2022-07-10T11:50:25;25.50;99.90
20654;DHT22;21083;50.898;4.902;2022-07-10T11:52:54;25.70;99.90
20654;DHT22;21083;50.898;4.902;2022-07-10T11:55:22;25.60;99.90
20654;DHT22;21083;50.898;4.902;2022-07-10T11:57:49;25.70;99.90
20654;DHT22;21083;50.898;4.902;2022-07-10T12:00:26;25.80;99.90
20654;DHT22;21083;50.898;4.902;2022-07-10T12:02:55;26.20;99.90
20654;DHT22;21083;50.898;4.902;2022-07-10T12:05:32;26.30;99.90
20654;DHT22;21083;50.898;4.902;2022-07-10T12:08:02;26.50;99.90
20654;DHT22;21083;50.898;4.902;2022-07-10T12:10:31;26.80;99.90
20654;DHT22;21083;50.898;4.902;2022-07-10T12:13:05;26.90;99.90
20654;DHT22;21083;50.898;4.902;2022-07-10T12:15:33;26.40;99.90
20654;DHT22;21083;50.898;4.902;2022-07-10T12:18:01;26.30;99.90
20654;DHT22;21083;50.898;4.902;2022-07-10T12:20:28;26.60;99.90
20654;DHT22;21083;50.898;4.902;2022-07-10T12:22:55;26.90;99.90
20654;DHT22;21083;50.898;4.902;2022-07-10T12:25:24;27.00;99.90
20654;DHT22;21083;50.898;4.902;2022-07-10T12:27:55;27.10;99.90
20654;DHT22;21083;50.898;4.902;2022-07-10T12:30:23;27.10;99.90
20654;DHT22;21083;50.898;4.902;2022-07-10T12:32:50;26.90;99.90
20654;DHT22;21083;50.898;4.902;2022-07-10T12:35:17;26.80;99.90
20654;DHT22;21083;50.898;4.902;2022-07-10T12:37:48;26.60;99.90
20654;DHT22;21083;50.898;4.902;2022-07-10T12:40:32;26.40;99.90
20654;DHT22;21083;50.898;4.902;2022-07-10T12:43:02;25.80;99.90
20654;DHT22;21083;50.898;4.902;2022-07-10T12:45:30;25.80;99.90
20654;DHT22;21083;50.898;4.902;2022-07-10T12:47:57;25.50;99.90
20654;DHT22;21083;50.898;4.902;2022-07-10T12:50:24;25.10;99.90
20654;DHT22;21083;50.898;4.902;2022-07-10T12:53:07;25.20;99.90
20654;DHT22;21083;50.898;4.902;2022-07-10T12:55:39;25.40;99.90
20654;DHT22;21083;50.898;4.902;2022-07-10T12:58:08;25.40;99.90
20654;DHT22;21083;50.898;4.902;2022-07-10T13:00:43;25.60;99.90
20654;DHT22;21083;50.898;4.902;2022-07-10T13:03:16;25.80;99.90
20654;DHT22;21083;50.898;4.902;2022-07-10T13:05:44;25.60;99.90
20654;DHT22;21083;50.898;4.902;2022-07-10T13:08:12;26.30;99.90
20654;DHT22;21083;50.898;4.902;2022-07-10T13:10:43;26.90;99.90
20654;DHT22;21083;50.898;4.902;2022-07-10T13:13:10;27.50;99.90
20654;DHT22;21083;50.898;4.902;2022-07-10T13:15:38;28.00;99.90
20654;DHT22;21083;50.898;4.902;2022-07-10T13:18:13;28.00;99.90
20654;DHT22;21083;50.898;4.902;2022-07-10T13:20:40;28.30;99.90
20654;DHT22;21083;50.898;4.902;2022-07-10T13:23:06;28.60;99.90
20654;DHT22;21083;50.898;4.902;2022-07-10T13:25:33;28.90;99.90
20654;DHT22;21083;50.898;4.902;2022-07-10T13:28:02;29.00;99.90
20654;DHT22;21083;50.898;4.902;2022-07-10T13:30:29;29.00;99.90
20654;DHT22;21083;50.898;4.902;2022-07-10T13:32:57;28.90;99.90
20654;DHT22;21083;50.898;4.902;2022-07-10T13:35:24;28.70;99.90
20654;DHT22;21083;50.898;4.902;2022-07-10T13:37:51;28.30;99.90
20654;DHT22;21083;50.898;4.902;2022-07-10T13:40:18;28.60;99.90
20654;DHT22;21083;50.898;4.902;2022-07-10T13:42:44;28.80;99.90
20654;DHT22;21083;50.898;4.902;2022-07-10T13:45:13;28.40;99.90
20654;DHT22;21083;50.898;4.902;2022-07-10T13:47:40;28.00;99.90
20654;DHT22;21083;50.898;4.902;2022-07-10T13:50:07;27.80;99.90
20654;DHT22;21083;50.898;4.902;2022-07-10T13:52:34;27.90;99.90
20654;DHT22;21083;50.898;4.902;2022-07-10T13:55:01;28.30;99.90
20654;DHT22;21083;50.898;4.902;2022-07-10T13:57:29;28.60;99.90
20654;DHT22;21083;50.898;4.902;2022-07-10T13:59:56;28.80;99.90
20654;DHT22;21083;50.898;4.902;2022-07-10T14:02:24;28.60;99.90
20654;DHT22;21083;50.898;4.902;2022-07-10T14:04:51;28.90;99.90
20654;DHT22;21083;50.898;4.902;2022-07-10T14:07:18;29.20;99.90
20654;DHT22;21083;50.898;4.902;2022-07-10T14:09:45;28.80;99.90
20654;DHT22;21083;50.898;4.902;2022-07-10T14:12:12;28.80;99.90
20654;DHT22;21083;50.898;4.902;2022-07-10T14:14:39;28.50;99.90
20654;DHT22;21083;50.898;4.902;2022-07-10T14:17:06;28.00;99.90
20654;DHT22;21083;50.898;4.902;2022-07-10T14:19:34;26.90;99.90
20654;DHT22;21083;50.898;4.902;2022-07-10T14:22:01;27.00;99.90
20654;DHT22;21083;50.898;4.902;2022-07-10T14:24:28;27.30;99.90
20654;DHT22;21083;50.898;4.902;2022-07-10T14:26:55;27.80;99.90
20654;DHT22;21083;50.898;4.902;2022-07-10T14:29:22;28.10;99.90
20654;DHT22;21083;50.898;4.902;2022-07-10T14:31:49;28.10;99.90
20654;DHT22;21083;50.898;4.902;2022-07-10T14:34:17;28.60;99.90
20654;DHT22;21083;50.898;4.902;2022-07-10T14:36:46;29.20;99.90
20654;DHT22;21083;50.898;4.902;2022-07-10T14:39:12;28.90;99.90
20654;DHT22;21083;50.898;4.902;2022-07-10T14:41:39;29.10;99.90
20654;DHT22;21083;50.898;4.902;2022-07-10T14:44:06;29.50;99.90
20654;DHT22;21083;50.898;4.902;2022-07-10T14:46:33;29.40;99.90
20654;DHT22;21083;50.898;4.902;2022-07-10T14:49:00;28.90;99.90
20654;DHT22;21083;50.898;4.902;2022-07-10T14:51:28;28.60;99.90
20654;DHT22;21083;50.898;4.902;2022-07-10T14:53:56;28.80;99.90
20654;DHT22;21083;50.898;4.902;2022-07-10T14:56:23;28.90;99.90
20654;DHT22;21083;50.898;4.902;2022-07-10T14:58:50;28.80;99.90
20654;DHT22;21083;50.898;4.902;2022-07-10T15:01:17;28.50;99.90
20654;DHT22;21083;50.898;4.902;2022-07-10T15:03:44;28.50;99.90
20654;DHT22;21083;50.898;4.902;2022-07-10T15:06:11;28.40;99.90
20654;DHT22;21083;50.898;4.902;2022-07-10T15:08:38;28.00;99.90
20654;DHT22;21083;50.898;4.902;2022-07-10T15:11:07;27.60;99.90
20654;DHT22;21083;50.898;4.902;2022-07-10T15:13:33;27.30;99.90
20654;DHT22;21083;50.898;4.902;2022-07-10T15:16:00;27.70;99.90
20654;DHT22;21083;50.898;4.902;2022-07-10T15:18:27;27.60;99.90
20654;DHT22;21083;50.898;4.902;2022-07-10T15:20:54;27.00;99.90
20654;DHT22;21083;50.898;4.902;2022-07-10T15:23:22;26.90;99.90
20654;DHT22;21083;50.898;4.902;2022-07-10T15:25:49;27.20;99.90
20654;DHT22;21083;50.898;4.902;2022-07-10T15:28:17;27.40;99.90
20654;DHT22;21083;50.898;4.902;2022-07-10T15:30:44;27.50;99.90
20654;DHT22;21083;50.898;4.902;2022-07-10T15:33:11;27.60;99.90
20654;DHT22;21083;50.898;4.902;2022-07-10T15:35:38;27.60;99.90
20654;DHT22;21083;50.898;4.902;2022-07-10T15:38:05;27.80;99.90
20654;DHT22;21083;50.898;4.902;2022-07-10T15:40:32;27.70;99.90
20654;DHT22;21083;50.898;4.902;2022-07-10T15:42:59;27.60;99.90